createdAt,value
2018-10-21T00:02:25.676Z,43.97
2018-10-21T00:04:53.849Z,41.57
2018-10-21T00:07:22.457Z,37.70
2018-10-21T00:09:51.517Z,46.43
2018-10-21T00:12:19.845Z,52.73
2018-10-21T00:14:48.327Z,40.73
2018-10-21T00:17:16.973Z,46.83
2018-10-21T00:19:45.315Z,42.33
2018-10-21T00:22:13.657Z,43.60
2018-10-21T00:24:42.058Z,50.63
2018-10-21T00:27:10.408Z,42.23
2018-10-21T00:29:38.673Z,50.97
2018-10-21T00:32:07.021Z,43.38
2018-10-21T00:34:35.367Z,52.50
2018-10-21T00:37:05.729Z,59.83
2018-10-21T00:39:34.081Z,46.70
2018-10-21T00:42:02.462Z,60.40
2018-10-21T00:44:30.807Z,61.60
2018-10-21T00:46:59.147Z,45.10
2018-10-21T00:49:27.647Z,55.80
2018-10-21T00:51:55.949Z,48.93
2018-10-21T00:54:24.271Z,61.47
2018-10-21T00:56:52.587Z,62.83
2018-10-21T00:59:20.909Z,50.37
2018-10-21T01:01:50.284Z,57.77
2018-10-21T01:04:18.572Z,57.67
2018-10-21T01:06:46.909Z,54.83
2018-10-21T01:09:15.228Z,61.83
2018-10-21T01:11:43.950Z,51.70
2018-10-21T01:14:12.284Z,64.63
2018-10-21T01:16:40.598Z,74.00
2018-10-21T01:19:08.958Z,63.47
2018-10-21T01:21:37.643Z,58.77
2018-10-21T01:24:06.894Z,55.77
2018-10-21T01:26:35.272Z,62.20
2018-10-21T01:29:03.613Z,56.27
2018-10-21T01:31:32.848Z,64.23
2018-10-21T01:34:01.158Z,58.10
2018-10-21T01:36:29.778Z,51.67
2018-10-21T01:38:58.108Z,44.20
2018-10-21T01:41:26.392Z,56.13
2018-10-21T01:43:54.695Z,58.77
2018-10-21T01:46:24.158Z,67.57
2018-10-21T01:48:54.401Z,49.53
2018-10-21T01:51:22.806Z,49.30
2018-10-21T01:53:53.827Z,54.37
2018-10-21T01:56:22.157Z,66.07
2018-10-21T01:58:50.499Z,68.37
2018-10-21T02:01:18.997Z,49.70
2018-10-21T02:03:47.321Z,51.67
2018-10-21T02:06:15.707Z,58.90
2018-10-21T02:08:44.023Z,51.23
2018-10-21T02:11:12.356Z,56.17
2018-10-21T02:13:40.773Z,49.90
2018-10-21T02:16:09.338Z,51.97
2018-10-21T02:18:37.677Z,50.97
2018-10-21T02:21:06.159Z,52.23
2018-10-21T02:23:34.417Z,49.47
2018-10-21T02:26:02.971Z,54.30
2018-10-21T02:28:31.329Z,50.33
2018-10-21T02:30:59.701Z,49.55
2018-10-21T02:33:28.335Z,47.47
2018-10-21T02:35:56.729Z,55.47
2018-10-21T02:38:25.044Z,51.67
2018-10-21T02:41:39.675Z,45.63
2018-10-21T02:44:13.197Z,50.17
2018-10-21T02:46:42.379Z,50.27
2018-10-21T02:49:11.735Z,56.53
2018-10-21T02:51:40.079Z,50.90
2018-10-21T02:54:09.935Z,47.60
2018-10-21T02:56:38.291Z,46.57
2018-10-21T02:59:07.291Z,54.80
2018-10-21T03:01:35.741Z,50.08
2018-10-21T03:04:04.973Z,55.70
2018-10-21T03:06:33.523Z,57.93
2018-10-21T03:09:01.898Z,59.27
2018-10-21T03:11:31.126Z,54.63
2018-10-21T03:13:59.557Z,56.90
2018-10-21T03:16:28.809Z,57.70
2018-10-21T03:18:57.203Z,69.93
2018-10-21T03:21:25.531Z,58.00
2018-10-21T03:23:54.215Z,61.63
2018-10-21T03:26:23.558Z,57.93
2018-10-21T03:28:53.010Z,54.27
2018-10-21T03:31:21.424Z,61.30
2018-10-21T03:33:50.308Z,62.13
2018-10-21T03:36:18.626Z,50.70
2018-10-21T03:38:46.966Z,59.63
2018-10-21T03:41:15.286Z,56.60
2018-10-21T03:43:43.708Z,61.83
2018-10-21T03:46:13.447Z,66.67
2018-10-21T03:48:41.903Z,56.40
2018-10-21T03:51:10.356Z,52.33
2018-10-21T03:53:38.843Z,55.63
2018-10-21T03:56:07.422Z,61.67
2018-10-21T03:58:35.726Z,56.77
2018-10-21T04:01:04.121Z,55.10
2018-10-21T04:03:32.594Z,57.80
2018-10-21T04:06:01.158Z,59.37
2018-10-21T04:08:29.603Z,56.50
2018-10-21T04:10:57.983Z,58.13
2018-10-21T04:13:26.399Z,64.17
2018-10-21T04:15:54.791Z,64.97
2018-10-21T04:18:23.058Z,56.50
2018-10-21T04:20:51.724Z,67.87
2018-10-21T04:23:23.469Z,65.83
2018-10-21T04:25:51.983Z,71.90
2018-10-21T04:28:20.428Z,68.33
2018-10-21T04:30:48.780Z,72.43
2018-10-21T04:33:48.749Z,90.83
2018-10-21T04:36:19.106Z,84.13
2018-10-21T04:40:08.086Z,89.77
2018-10-21T04:42:36.406Z,80.20
2018-10-21T04:45:05.300Z,85.83
2018-10-21T04:47:33.862Z,70.07
2018-10-21T04:50:02.212Z,74.30
2018-10-21T04:52:32.171Z,77.00
2018-10-21T04:55:08.325Z,83.53
2018-10-21T04:57:37.974Z,75.53
2018-10-21T05:00:11.883Z,78.67
2018-10-21T05:02:40.387Z,77.30
2018-10-21T05:05:09.987Z,90.23
2018-10-21T05:07:38.856Z,65.20
2018-10-21T05:10:20.199Z,92.87
2018-10-21T05:12:48.539Z,63.63
2018-10-21T05:15:16.917Z,80.80
2018-10-21T05:17:45.383Z,72.60
2018-10-21T05:20:14.189Z,71.30
2018-10-21T05:22:42.649Z,64.30
2018-10-21T05:25:11.719Z,63.17
2018-10-21T05:27:40.267Z,65.70
2018-10-21T05:30:09.906Z,80.83
2018-10-21T05:32:38.379Z,75.70
2018-10-21T05:35:08.681Z,84.97
2018-10-21T05:37:37.609Z,71.13
2018-10-21T05:40:07.465Z,67.37
2018-10-21T05:42:35.873Z,62.03
2018-10-21T05:45:04.534Z,62.67
2018-10-21T05:47:32.864Z,69.03
2018-10-21T05:50:01.429Z,58.03
2018-10-21T05:52:29.756Z,70.97
2018-10-21T05:54:58.250Z,59.57
2018-10-21T05:57:26.708Z,63.30
2018-10-21T05:59:55.026Z,62.87
2018-10-21T06:02:23.356Z,76.60
2018-10-21T06:04:52.900Z,69.13
2018-10-21T06:07:21.383Z,65.07
2018-10-21T06:09:49.954Z,77.43
2018-10-21T06:12:18.264Z,85.87
2018-10-21T06:14:48.170Z,71.23
2018-10-21T06:17:21.893Z,70.10
2018-10-21T06:19:55.434Z,63.40
2018-10-21T06:22:23.803Z,63.20
2018-10-21T06:24:52.248Z,65.57
2018-10-21T06:27:20.582Z,63.07
2018-10-21T06:29:48.915Z,71.27
2018-10-21T06:32:17.280Z,66.13
2018-10-21T06:34:45.584Z,54.37
2018-10-21T06:37:13.922Z,60.90
2018-10-21T06:39:42.230Z,72.23
2018-10-21T06:42:10.674Z,82.67
2018-10-21T06:44:39.166Z,77.60
2018-10-21T06:47:07.602Z,81.10
2018-10-21T06:49:35.932Z,68.70
2018-10-21T06:52:04.412Z,75.10
2018-10-21T06:54:32.751Z,65.00
2018-10-21T06:57:01.541Z,65.73
2018-10-21T06:59:29.786Z,64.33
2018-10-21T07:01:58.144Z,56.73
2018-10-21T07:04:26.510Z,61.10
2018-10-21T07:06:54.784Z,60.60
2018-10-21T07:09:23.112Z,64.93
2018-10-21T07:11:51.474Z,62.00
2018-10-21T07:14:19.901Z,61.30
2018-10-21T07:16:48.308Z,56.50
2018-10-21T07:19:16.665Z,61.97
2018-10-21T07:21:45.351Z,76.87
2018-10-21T07:24:13.681Z,58.80
2018-10-21T07:26:42.032Z,65.70
2018-10-21T07:29:10.379Z,57.50
2018-10-21T07:31:38.807Z,63.33
2018-10-21T07:34:07.169Z,57.97
2018-10-21T07:36:35.449Z,54.53
2018-10-21T07:39:05.192Z,62.37
2018-10-21T07:41:33.626Z,45.60
2018-10-21T07:44:02.553Z,51.70
2018-10-21T07:46:31.603Z,57.43
2018-10-21T07:49:02.136Z,55.47
2018-10-21T07:51:30.497Z,48.60
2018-10-21T07:53:58.821Z,98.00
2018-10-21T07:56:27.161Z,73.57
2018-10-21T07:58:55.741Z,71.37
2018-10-21T08:01:24.120Z,112.53
2018-10-21T08:03:52.524Z,128.23
2018-10-21T08:06:35.572Z,80.77
2018-10-21T08:09:05.953Z,83.43
2018-10-21T08:11:34.310Z,177.97
2018-10-21T08:14:02.661Z,211.07
2018-10-21T08:16:31.678Z,195.10
2018-10-21T08:19:00.031Z,155.77
2018-10-21T08:21:28.397Z,79.10
2018-10-21T08:23:57.053Z,59.87
2018-10-21T08:26:25.414Z,76.20
2018-10-21T08:28:55.478Z,52.93
2018-10-21T08:31:23.820Z,54.00
2018-10-21T08:33:52.437Z,57.23
2018-10-21T08:36:20.943Z,60.13
2018-10-21T08:38:49.351Z,55.33
2018-10-21T08:41:17.695Z,65.30
2018-10-21T08:43:48.007Z,61.13
2018-10-21T08:46:16.477Z,67.05
2018-10-21T08:48:44.788Z,69.33
2018-10-21T08:51:13.147Z,68.30
2018-10-21T08:53:41.581Z,67.90
2018-10-21T08:56:09.918Z,68.47
2018-10-21T08:58:38.312Z,78.23
2018-10-21T09:01:07.532Z,81.00
2018-10-21T09:03:35.965Z,80.67
2018-10-21T09:06:04.416Z,73.73
2018-10-21T09:08:32.898Z,77.83
2018-10-21T09:11:01.858Z,78.80
2018-10-21T09:13:30.303Z,71.57
2018-10-21T09:15:58.716Z,71.00
2018-10-21T09:18:27.044Z,86.00
2018-10-21T09:20:55.389Z,68.43
2018-10-21T09:23:23.792Z,61.90
2018-10-21T09:25:52.395Z,52.70
2018-10-21T09:28:20.791Z,55.07
2018-10-21T09:30:49.242Z,50.80
2018-10-21T09:33:18.373Z,44.80
2018-10-21T09:35:51.346Z,43.02
2018-10-21T09:38:21.041Z,39.27
2018-10-21T09:40:49.325Z,49.43
2018-10-21T09:43:19.774Z,43.30
2018-10-21T09:45:52.303Z,40.90
2018-10-21T09:48:25.688Z,47.50
2018-10-21T09:50:54.467Z,40.53
2018-10-21T09:53:23.582Z,37.90
2018-10-21T09:55:54.520Z,43.80
2018-10-21T09:58:29.615Z,42.83
2018-10-21T10:01:07.406Z,35.10
2018-10-21T10:06:28.172Z,34.83
2018-10-21T10:09:00.177Z,31.47
2018-10-21T10:11:34.022Z,30.82
2018-10-21T10:14:07.190Z,34.03
2018-10-21T10:16:40.412Z,56.23
2018-10-21T10:19:08.974Z,30.97
2018-10-21T10:21:37.573Z,35.13
2018-10-21T10:24:10.386Z,38.30
2018-10-21T10:26:42.997Z,27.87
2018-10-21T10:29:11.597Z,37.37
2018-10-21T10:31:39.969Z,30.00
2018-10-21T10:34:08.372Z,30.47
2018-10-21T10:36:36.674Z,37.87
2018-10-21T10:39:08.575Z,24.63
2018-10-21T10:41:37.093Z,28.20
2018-10-21T10:44:05.688Z,26.90
2018-10-21T10:46:34.026Z,33.95
2018-10-21T10:49:02.418Z,26.73
2018-10-21T10:51:30.762Z,24.33
2018-10-21T10:53:59.110Z,23.80
2018-10-21T10:56:27.645Z,31.23
2018-10-21T10:58:55.970Z,27.77
2018-10-21T11:01:24.326Z,33.60
2018-10-21T11:03:52.654Z,23.50
2018-10-21T11:06:21.196Z,19.23
2018-10-21T11:08:49.426Z,24.73
2018-10-21T11:11:17.758Z,21.67
2018-10-21T11:13:46.958Z,23.73
2018-10-21T11:16:15.459Z,24.53
2018-10-21T11:18:43.822Z,26.13
2018-10-21T11:21:12.309Z,21.52
2018-10-21T11:23:40.626Z,23.23
2018-10-21T11:26:08.962Z,17.73
2018-10-21T11:28:38.291Z,17.33
2018-10-21T11:31:06.680Z,15.53
2018-10-21T11:33:34.995Z,15.60
2018-10-21T11:36:03.424Z,16.10
2018-10-21T11:38:31.810Z,28.33
2018-10-21T11:41:00.162Z,17.77
2018-10-21T11:43:28.545Z,20.40
2018-10-21T11:45:57.740Z,19.80
2018-10-21T11:48:26.187Z,20.10
2018-10-21T11:50:54.505Z,13.60
2018-10-21T11:53:23.065Z,24.60
2018-10-21T11:55:51.394Z,15.83
2018-10-21T11:58:19.738Z,19.70
2018-10-21T12:00:48.245Z,13.90
2018-10-21T12:03:16.805Z,17.00
2018-10-21T12:05:45.223Z,11.10
2018-10-21T12:08:14.029Z,23.87
2018-10-21T12:10:42.417Z,13.95
2018-10-21T12:13:12.045Z,11.33
2018-10-21T12:15:40.345Z,13.07
2018-10-21T12:18:09.061Z,11.70
2018-10-21T12:20:40.653Z,11.10
2018-10-21T12:23:13.015Z,17.40
2018-10-21T12:25:47.287Z,11.80
2018-10-21T12:28:19.771Z,13.13
2018-10-21T12:30:52.983Z,10.17
2018-10-21T12:33:21.423Z,11.70
2018-10-21T12:35:49.805Z,9.17
2018-10-21T12:38:22.507Z,9.00
2018-10-21T12:40:55.687Z,6.40
2018-10-21T12:43:28.779Z,8.00
2018-10-21T12:45:57.791Z,15.70
2018-10-21T12:48:26.726Z,8.03
2018-10-21T12:50:57.265Z,4.60
2018-10-21T12:53:25.622Z,6.60
2018-10-21T12:55:53.996Z,7.17
2018-10-21T12:58:22.522Z,7.30
2018-10-21T13:00:50.882Z,5.03
2018-10-21T13:03:19.894Z,4.10
2018-10-21T13:05:49.580Z,3.40
2018-10-21T13:08:20.565Z,10.20
2018-10-21T13:10:48.945Z,4.27
2018-10-21T13:13:17.403Z,5.90
2018-10-21T13:15:45.874Z,5.00
2018-10-21T13:18:14.360Z,4.90
2018-10-21T13:20:42.730Z,3.90
2018-10-21T13:23:11.294Z,3.90
2018-10-21T13:25:39.630Z,8.13
2018-10-21T13:28:08.075Z,4.53
2018-10-21T13:30:36.350Z,10.13
2018-10-21T13:33:05.144Z,8.60
2018-10-21T13:35:34.540Z,3.87
2018-10-21T13:38:02.870Z,3.87
2018-10-21T13:40:31.390Z,3.90
2018-10-21T13:42:59.999Z,4.20
2018-10-21T13:45:28.360Z,5.07
2018-10-21T13:47:56.778Z,3.47
2018-10-21T13:50:25.081Z,4.77
2018-10-21T13:52:53.439Z,6.63
2018-10-21T13:55:21.766Z,3.03
2018-10-21T13:57:50.071Z,3.27
2018-10-21T14:00:18.494Z,4.20
2018-10-21T14:02:47.856Z,6.20
2018-10-21T14:05:16.225Z,6.00
2018-10-21T14:07:45.516Z,5.55
2018-10-21T14:10:14.038Z,10.50
2018-10-21T14:12:42.702Z,4.70
2018-10-21T14:15:11.071Z,3.12
2018-10-21T14:17:39.556Z,8.03
2018-10-21T14:20:09.385Z,11.20
2018-10-21T14:22:37.795Z,5.93
2018-10-21T14:25:06.397Z,6.23
2018-10-21T14:27:34.748Z,4.50
2018-10-21T14:30:03.385Z,2.50
2018-10-21T14:32:31.885Z,6.50
2018-10-21T14:35:00.341Z,9.37
2018-10-21T14:37:28.739Z,4.00
2018-10-21T14:39:57.163Z,4.13
2018-10-21T14:42:25.805Z,4.23
2018-10-21T14:44:54.314Z,6.03
2018-10-21T14:47:22.845Z,3.00
2018-10-21T14:49:51.419Z,2.50
2018-10-21T14:52:20.037Z,6.13
2018-10-21T14:54:48.563Z,4.83
2018-10-21T14:57:17.582Z,7.90
2018-10-21T14:59:46.043Z,8.50
2018-10-21T15:02:14.565Z,8.60
2018-10-21T15:04:42.928Z,3.43
2018-10-21T15:07:11.579Z,6.17
2018-10-21T15:09:40.265Z,5.40
2018-10-21T15:12:08.732Z,4.17
2018-10-21T15:14:37.166Z,6.40
2018-10-21T15:17:05.842Z,2.40
2018-10-21T15:19:34.698Z,3.53
2018-10-21T15:22:03.084Z,9.30
2018-10-21T15:24:32.354Z,5.37
2018-10-21T15:27:00.709Z,2.80
2018-10-21T15:29:29.034Z,5.33
2018-10-21T15:31:57.554Z,4.13
2018-10-21T15:34:26.038Z,4.97
2018-10-21T15:36:54.346Z,7.07
2018-10-21T15:39:22.752Z,4.37
2018-10-21T15:41:51.200Z,4.10
2018-10-21T15:44:19.747Z,4.43
2018-10-21T15:46:48.090Z,5.83
2018-10-21T15:49:18.387Z,11.03
2018-10-21T15:51:46.951Z,3.70
2018-10-21T15:54:15.521Z,4.60
2018-10-21T15:56:44.304Z,6.03
2018-10-21T15:59:12.863Z,13.03
2018-10-21T16:01:41.328Z,4.20
2018-10-21T16:04:09.715Z,4.37
2018-10-21T16:06:38.009Z,5.07
2018-10-21T16:09:08.930Z,6.57
2018-10-21T16:11:37.242Z,8.30
2018-10-21T16:14:06.053Z,7.77
2018-10-21T16:16:35.130Z,9.60
2018-10-21T16:19:03.504Z,10.00
2018-10-21T16:21:31.844Z,4.60
2018-10-21T16:24:00.206Z,8.70
2018-10-21T16:26:28.617Z,4.47
2018-10-21T16:28:57.506Z,16.80
2018-10-21T16:31:25.825Z,6.40
2018-10-21T16:33:54.514Z,5.90
2018-10-21T16:36:22.858Z,5.23
2018-10-21T16:38:51.810Z,8.23
2018-10-21T16:41:21.671Z,10.20
2018-10-21T16:43:50.315Z,6.33
2018-10-21T16:46:19.131Z,37.33
2018-10-21T16:48:47.506Z,12.10
2018-10-21T16:51:15.986Z,15.73
2018-10-21T16:53:44.428Z,45.73
2018-10-21T16:56:12.898Z,34.03
2018-10-21T16:58:41.245Z,20.53
2018-10-21T17:01:09.744Z,14.60
2018-10-21T17:03:38.079Z,15.87
2018-10-21T17:06:06.306Z,14.40
2018-10-21T17:08:35.544Z,24.35
2018-10-21T17:11:05.204Z,16.53
2018-10-21T17:13:34.469Z,13.90
2018-10-21T17:16:03.940Z,83.87
2018-10-21T17:18:32.526Z,95.50
2018-10-21T17:21:01.206Z,122.47
2018-10-21T17:23:35.836Z,81.10
2018-10-21T17:26:05.336Z,45.00
2018-10-21T17:28:33.939Z,44.13
2018-10-21T17:31:02.470Z,47.47
2018-10-21T17:33:31.533Z,14.90
2018-10-21T17:36:00.296Z,15.90
2018-10-21T17:38:28.980Z,12.60
2018-10-21T17:40:57.613Z,15.53
2018-10-21T17:43:26.053Z,14.83
2018-10-21T17:45:54.384Z,16.20
2018-10-21T17:48:24.029Z,13.33
2018-10-21T17:50:54.714Z,20.90
2018-10-21T17:53:24.799Z,19.57
2018-10-21T17:55:53.155Z,15.03
2018-10-21T17:58:24.391Z,11.70
2018-10-21T18:00:52.824Z,12.37
2018-10-21T18:03:21.166Z,12.27
2018-10-21T18:05:49.515Z,10.55
2018-10-21T18:08:17.960Z,9.80
2018-10-21T18:10:46.382Z,14.47
2018-10-21T18:13:15.599Z,15.90
2018-10-21T18:15:43.931Z,16.07
2018-10-21T18:18:12.430Z,15.68
2018-10-21T18:20:42.964Z,19.03
2018-10-21T18:23:12.621Z,12.13
2018-10-21T18:25:40.952Z,10.23
2018-10-21T18:28:09.616Z,11.93
2018-10-21T18:30:38.019Z,18.83
2018-10-21T18:33:07.801Z,340.03
2018-10-21T18:35:37.161Z,292.20
2018-10-21T18:38:05.684Z,121.57
2018-10-21T18:40:35.187Z,43.60
2018-10-21T18:43:03.640Z,23.87
2018-10-21T18:45:32.279Z,12.50
2018-10-21T18:48:00.699Z,29.67
2018-10-21T18:50:28.985Z,13.70
2018-10-21T18:52:58.459Z,12.53
2018-10-21T18:55:27.769Z,14.10
2018-10-21T18:57:56.209Z,9.30
2018-10-21T19:00:24.607Z,14.40
2018-10-21T19:02:53.204Z,16.83
2018-10-21T19:05:21.760Z,16.03
2018-10-21T19:07:50.207Z,14.93
2018-10-21T19:10:18.634Z,12.07
2018-10-21T19:12:59.569Z,252.77
2018-10-21T19:15:15.471Z,50.67
2018-10-21T19:17:44.063Z,48.00
2018-10-21T19:20:14.029Z,18.05
2018-10-21T19:22:43.177Z,20.20
2018-10-21T19:25:12.907Z,15.20
2018-10-21T19:27:43.027Z,13.30
2018-10-21T19:30:12.841Z,20.23
2018-10-21T19:32:41.897Z,13.10
2018-10-21T19:35:11.749Z,17.20
2018-10-21T19:37:40.887Z,12.10
2018-10-21T19:40:11.044Z,15.37
2018-10-21T19:42:40.701Z,16.50
2018-10-21T19:45:09.908Z,11.50
2018-10-21T19:47:38.659Z,10.20
2018-10-21T19:50:08.721Z,13.37
2018-10-21T19:52:37.073Z,12.10
2018-10-21T19:55:05.963Z,14.43
2018-10-21T19:57:34.365Z,9.90
2018-10-21T20:00:02.946Z,14.60
2018-10-21T20:02:31.553Z,11.50
2018-10-21T20:05:00.127Z,16.67
2018-10-21T20:07:28.564Z,15.03
2018-10-21T20:09:56.965Z,11.43
2018-10-21T20:12:25.603Z,17.90
2018-10-21T20:14:54.210Z,81.37
2018-10-21T20:17:22.633Z,31.37
2018-10-21T20:19:51.090Z,35.37
2018-10-21T20:22:19.720Z,26.87
2018-10-21T20:24:48.161Z,12.97
2018-10-21T20:27:16.477Z,19.63
2018-10-21T20:29:44.777Z,13.40
2018-10-21T20:32:13.213Z,139.90
2018-10-21T20:34:41.707Z,17.70
2018-10-21T20:37:10.103Z,13.50
2018-10-21T20:39:38.459Z,11.87
2018-10-21T20:42:06.820Z,17.70
2018-10-21T20:44:35.893Z,10.40
2018-10-21T20:47:04.275Z,72.43
2018-10-21T20:49:32.639Z,18.40
2018-10-21T20:52:01.102Z,16.40
2018-10-21T20:54:34.771Z,13.43
2018-10-21T20:57:07.929Z,15.50
2018-10-21T20:59:37.001Z,12.33
2018-10-21T21:02:06.345Z,20.23
2018-10-21T21:04:34.751Z,16.80
2018-10-21T21:07:03.956Z,22.87
2018-10-21T21:09:32.273Z,15.70
2018-10-21T21:12:00.668Z,25.33
2018-10-21T21:14:29.059Z,16.40
2018-10-21T21:16:57.483Z,14.00
2018-10-21T21:19:25.774Z,11.97
2018-10-21T21:21:54.243Z,13.97
2018-10-21T21:24:22.731Z,13.67
2018-10-21T21:26:51.399Z,10.97
2018-10-21T21:29:19.744Z,13.13
2018-10-21T21:31:48.046Z,11.87
2018-10-21T21:34:16.924Z,12.73
2018-10-21T21:36:45.244Z,14.40
2018-10-21T21:39:14.786Z,13.30
2018-10-21T21:41:44.301Z,9.90
2018-10-21T21:44:12.671Z,8.90
2018-10-21T21:46:41.610Z,20.50
2018-10-21T21:49:14.085Z,13.20
2018-10-21T21:51:42.419Z,15.13
2018-10-21T21:54:12.301Z,10.87
2018-10-21T21:56:41.393Z,17.03
2018-10-21T21:59:10.534Z,10.50
2018-10-21T22:01:39.182Z,9.20
2018-10-21T22:04:07.983Z,11.10
2018-10-21T22:06:36.540Z,12.63
2018-10-21T22:09:08.220Z,10.80
2018-10-21T22:11:37.057Z,16.57
2018-10-21T22:14:06.902Z,14.63
2018-10-21T22:16:35.269Z,14.77
2018-10-21T22:19:04.084Z,10.43
2018-10-21T22:21:32.419Z,12.10
2018-10-21T22:24:00.793Z,11.77
2018-10-21T22:26:29.098Z,9.10
2018-10-21T22:28:57.856Z,9.00
2018-10-21T22:31:28.290Z,16.77
2018-10-21T22:33:56.650Z,11.97
2018-10-21T22:36:25.234Z,16.90
2018-10-21T22:38:53.850Z,10.77
2018-10-21T22:41:22.423Z,10.80
2018-10-21T22:43:50.911Z,12.23
2018-10-21T22:46:19.636Z,11.80
2018-10-21T22:48:48.119Z,22.53
2018-10-21T22:51:16.430Z,14.80
2018-10-21T22:53:44.806Z,10.87
2018-10-21T22:56:13.211Z,10.60
2018-10-21T22:58:41.585Z,10.90
2018-10-21T23:01:09.885Z,13.10
2018-10-21T23:03:38.339Z,10.30
2018-10-21T23:06:06.710Z,12.20
2018-10-21T23:08:34.951Z,11.33
2018-10-21T23:11:03.253Z,8.50
2018-10-21T23:13:31.598Z,17.23
2018-10-21T23:15:59.985Z,19.63
2018-10-21T23:18:28.270Z,9.47
2018-10-21T23:20:56.883Z,13.23
2018-10-21T23:23:25.198Z,12.13
2018-10-21T23:25:53.532Z,9.40
2018-10-21T23:28:21.911Z,16.40
2018-10-21T23:30:50.448Z,10.35
2018-10-21T23:33:19.377Z,12.03
2018-10-21T23:35:47.684Z,9.43
2018-10-21T23:38:15.970Z,9.33
2018-10-21T23:40:44.387Z,11.75
2018-10-21T23:43:12.805Z,14.40
2018-10-21T23:45:41.112Z,18.80
2018-10-21T23:48:10.369Z,10.20
2018-10-21T23:50:38.605Z,9.60
2018-10-21T23:53:06.931Z,10.43
2018-10-21T23:55:35.501Z,9.73
2018-10-21T23:58:03.937Z,10.73
